createdAt,value
2023-05-06T00:00:06.875Z,19.50
2023-05-06T00:02:38.690Z,19.40
2023-05-06T00:05:06.245Z,19.40
2023-05-06T00:07:33.114Z,19.40
2023-05-06T00:09:59.971Z,19.40
2023-05-06T00:12:26.746Z,19.40
2023-05-06T00:14:53.520Z,19.30
2023-05-06T00:17:20.352Z,19.30
2023-05-06T00:19:47.139Z,19.30
2023-05-06T00:22:13.977Z,19.30
2023-05-06T00:24:40.833Z,19.30
2023-05-06T00:27:07.699Z,19.30
2023-05-06T00:29:35.265Z,19.20
2023-05-06T00:32:02.069Z,19.20
2023-05-06T00:34:29.029Z,19.20
2023-05-06T00:36:55.868Z,19.30
2023-05-06T00:39:22.672Z,19.20
2023-05-06T00:41:49.480Z,19.10
2023-05-06T00:44:16.305Z,19.10
2023-05-06T00:46:43.716Z,19.10
2023-05-06T00:49:12.360Z,19.00
2023-05-06T00:51:39.223Z,19.00
2023-05-06T00:54:06.125Z,19.00
2023-05-06T00:56:32.992Z,19.00
2023-05-06T00:59:00.663Z,18.90
2023-05-06T01:01:30.802Z,18.90
2023-05-06T01:03:58.754Z,18.90
2023-05-06T01:06:44.705Z,18.90
2023-05-06T01:09:22.920Z,18.80
2023-05-06T01:11:53.553Z,18.80
2023-05-06T01:14:20.754Z,18.80
2023-05-06T01:16:52.786Z,18.80
2023-05-06T01:19:42.083Z,18.70
2023-05-06T01:22:11.698Z,18.70
2023-05-06T01:24:40.514Z,18.70
2023-05-06T01:31:17.373Z,18.70
2023-05-06T01:33:44.591Z,18.60
2023-05-06T01:36:43.714Z,18.70
2023-05-06T01:39:19.392Z,18.60
2023-05-06T01:41:49.990Z,18.60
2023-05-06T01:44:17.452Z,18.50
2023-05-06T01:46:45.832Z,18.50
2023-05-06T01:49:14.845Z,18.50
2023-05-06T01:51:46.771Z,18.40
2023-05-06T01:54:14.166Z,18.40
2023-05-06T01:56:40.924Z,18.40
2023-05-06T01:59:07.705Z,18.50
2023-05-06T02:01:34.653Z,18.30
2023-05-06T02:04:01.795Z,18.30
2023-05-06T02:06:28.855Z,18.30
2023-05-06T02:08:55.760Z,18.20
2023-05-06T02:11:24.661Z,18.20
2023-05-06T02:13:55.019Z,18.20
2023-05-06T02:16:22.042Z,18.10
2023-05-06T02:18:49.433Z,18.20
2023-05-06T02:21:16.495Z,18.10
2023-05-06T02:23:43.359Z,18.00
2023-05-06T02:26:10.630Z,18.00
2023-05-06T02:28:37.560Z,17.90
2023-05-06T02:31:04.410Z,17.90
2023-05-06T02:33:31.278Z,17.80
2023-05-06T02:35:58.113Z,17.80
2023-05-06T02:38:25.823Z,17.80
2023-05-06T02:40:53.449Z,17.80
2023-05-06T02:43:20.300Z,17.70
2023-05-06T02:45:47.114Z,17.80
2023-05-06T02:48:14.014Z,17.70
2023-05-06T02:50:41.520Z,17.70
2023-05-06T02:53:09.388Z,17.70
2023-05-06T02:55:36.532Z,17.60
2023-05-06T02:58:03.307Z,17.70
2023-05-06T03:00:30.298Z,17.50
2023-05-06T03:02:57.127Z,17.50
2023-05-06T03:05:23.989Z,17.70
2023-05-06T03:07:50.884Z,17.50
2023-05-06T03:10:17.916Z,17.50
2023-05-06T03:12:45.671Z,17.40
2023-05-06T03:15:13.032Z,17.40
2023-05-06T03:17:40.262Z,17.30
2023-05-06T03:20:08.869Z,17.30
2023-05-06T03:22:38.341Z,17.20
2023-05-06T03:25:06.022Z,17.20
2023-05-06T03:27:34.905Z,17.20
2023-05-06T03:30:08.711Z,17.10
2023-05-06T03:32:37.216Z,17.10
2023-05-06T03:35:08.319Z,17.00
2023-05-06T03:37:35.580Z,17.00
2023-05-06T03:40:04.577Z,16.90
2023-05-06T03:45:01.155Z,16.90
2023-05-06T03:47:30.829Z,16.90
2023-05-06T03:49:57.781Z,16.70
2023-05-06T03:52:25.249Z,16.80
2023-05-06T03:54:52.108Z,16.70
2023-05-06T03:57:19.254Z,16.70
2023-05-06T03:59:46.096Z,16.70
2023-05-06T04:02:13.145Z,16.60
2023-05-06T04:04:40.438Z,16.60
2023-05-06T04:07:07.205Z,16.60
2023-05-06T04:09:34.036Z,16.60
2023-05-06T04:12:04.741Z,16.60
2023-05-06T04:14:31.950Z,16.60
2023-05-06T04:16:59.286Z,16.50
2023-05-06T04:21:53.939Z,16.50
2023-05-06T04:24:21.442Z,16.30
2023-05-06T04:26:48.401Z,16.50
2023-05-06T04:29:15.462Z,16.50
2023-05-06T04:31:55.378Z,16.50
2023-05-06T04:36:54.207Z,16.40
2023-05-06T04:39:29.155Z,16.40
2023-05-06T04:41:57.102Z,16.40
2023-05-06T04:44:33.972Z,16.40
2023-05-06T04:47:02.436Z,16.40
2023-05-06T04:49:29.666Z,16.40
2023-05-06T04:54:24.618Z,16.40
2023-05-06T04:59:19.886Z,16.40
2023-05-06T05:01:47.018Z,16.40
2023-05-06T05:11:40.346Z,16.50
2023-05-06T05:19:03.938Z,16.50
2023-05-06T05:24:00.595Z,16.60
2023-05-06T05:28:57.134Z,16.60
2023-05-06T05:31:24.593Z,16.60
2023-05-06T05:33:51.818Z,16.70
2023-05-06T05:36:22.259Z,16.70
2023-05-06T05:38:52.145Z,16.70
2023-05-06T05:41:20.006Z,16.70
2023-05-06T05:43:47.577Z,16.80
2023-05-06T05:46:16.734Z,16.80
2023-05-06T05:51:13.846Z,16.90
2023-05-06T05:53:41.674Z,16.90
2023-05-06T05:56:09.423Z,17.00
2023-05-06T05:58:36.971Z,17.00
2023-05-06T06:01:04.183Z,17.00
2023-05-06T06:03:31.772Z,17.10
2023-05-06T06:05:59.241Z,17.20
2023-05-06T06:08:26.764Z,17.20
2023-05-06T06:10:55.253Z,17.20
2023-05-06T06:13:27.965Z,17.20
2023-05-06T06:15:56.714Z,17.30
2023-05-06T06:18:24.299Z,17.30
2023-05-06T06:20:53.288Z,17.40
2023-05-06T06:23:21.054Z,17.40
2023-05-06T06:25:48.026Z,17.50
2023-05-06T06:28:15.905Z,17.50
2023-05-06T06:30:44.025Z,17.60
2023-05-06T06:33:11.628Z,17.60
2023-05-06T06:35:39.886Z,17.70
2023-05-06T06:38:06.750Z,17.60
2023-05-06T06:43:01.278Z,17.80
2023-05-06T06:45:48.368Z,17.80
2023-05-06T06:48:15.365Z,17.90
2023-05-06T06:50:42.450Z,17.90
2023-05-06T06:53:10.262Z,17.90
2023-05-06T06:55:37.118Z,18.00
2023-05-06T06:58:03.995Z,18.00
2023-05-06T07:00:30.902Z,18.10
2023-05-06T07:02:57.700Z,18.10
2023-05-06T07:05:26.832Z,18.10
2023-05-06T07:07:53.774Z,18.20
2023-05-06T07:10:20.632Z,18.20
2023-05-06T07:12:47.504Z,18.10
2023-05-06T07:15:14.323Z,18.30
2023-05-06T07:17:41.329Z,18.30
2023-05-06T07:20:08.784Z,18.40
2023-05-06T07:22:35.823Z,18.40
2023-05-06T07:25:02.639Z,18.50
2023-05-06T07:27:30.808Z,18.50
2023-05-06T07:29:57.732Z,18.60
2023-05-06T07:32:24.566Z,22.20
2023-05-06T07:34:51.373Z,18.70
2023-05-06T07:37:18.197Z,18.70
2023-05-06T07:39:44.970Z,18.60
2023-05-06T07:42:13.169Z,18.70
2023-05-06T07:44:40.269Z,14.20
2023-05-06T07:47:07.344Z,18.70
2023-05-06T07:49:35.166Z,18.80
2023-05-06T07:52:03.483Z,18.80
2023-05-06T07:54:31.821Z,18.80
2023-05-06T07:56:58.999Z,19.10
2023-05-06T07:59:25.802Z,19.00
2023-05-06T08:01:52.614Z,18.90
2023-05-06T08:04:19.458Z,18.90
2023-05-06T08:06:46.386Z,14.80
2023-05-06T08:09:22.058Z,19.00
2023-05-06T08:11:50.771Z,19.10
2023-05-06T08:14:17.611Z,19.10
2023-05-06T08:16:44.455Z,19.10
2023-05-06T08:19:11.561Z,14.80
2023-05-06T08:21:38.351Z,19.30
2023-05-06T08:24:05.553Z,19.20
2023-05-06T08:26:32.355Z,19.30
2023-05-06T08:28:59.569Z,19.40
2023-05-06T08:31:26.716Z,19.40
2023-05-06T08:33:54.776Z,19.40
2023-05-06T08:36:22.387Z,19.40
2023-05-06T08:38:50.966Z,19.50
2023-05-06T08:41:19.619Z,19.60
2023-05-06T08:43:47.992Z,19.60
2023-05-06T08:46:15.267Z,19.70
2023-05-06T08:48:42.905Z,19.70
2023-05-06T08:51:11.979Z,19.80
2023-05-06T08:53:42.366Z,19.80
2023-05-06T08:56:11.604Z,19.80
2023-05-06T08:58:41.736Z,20.00
2023-05-06T09:01:09.149Z,20.00
2023-05-06T09:03:36.272Z,20.00
2023-05-06T09:06:03.354Z,20.10
2023-05-06T09:08:30.399Z,20.10
2023-05-06T09:10:57.754Z,20.10
2023-05-06T09:13:24.666Z,20.20
2023-05-06T09:15:53.992Z,20.30
2023-05-06T09:18:20.946Z,20.30
2023-05-06T09:20:49.295Z,20.30
2023-05-06T09:23:17.928Z,20.40
2023-05-06T09:25:46.355Z,20.40
2023-05-06T09:28:13.896Z,20.40
2023-05-06T09:30:42.710Z,20.50
2023-05-06T09:33:10.163Z,20.50
2023-05-06T09:35:42.406Z,20.60
2023-05-06T09:38:09.804Z,20.60
2023-05-06T09:40:37.364Z,20.70
2023-05-06T09:43:05.090Z,20.70
2023-05-06T09:45:32.712Z,20.80
2023-05-06T09:47:59.882Z,20.80
2023-05-06T09:50:27.277Z,20.90
2023-05-06T09:52:55.655Z,20.90
2023-05-06T09:55:23.708Z,20.90
2023-05-06T09:57:51.227Z,21.00
2023-05-06T10:00:18.854Z,21.00
2023-05-06T10:02:47.953Z,21.10
2023-05-06T10:05:15.105Z,21.10
2023-05-06T10:07:42.330Z,21.20
2023-05-06T10:10:11.517Z,21.30
2023-05-06T10:12:39.624Z,21.30
2023-05-06T10:15:07.138Z,21.40
2023-05-06T10:17:35.657Z,21.40
2023-05-06T10:20:04.649Z,21.50
2023-05-06T10:22:47.632Z,21.60
2023-05-06T10:25:26.857Z,21.60
2023-05-06T10:27:53.631Z,21.80
2023-05-06T10:30:22.310Z,21.80
2023-05-06T10:32:52.203Z,21.80
2023-05-06T10:35:44.199Z,21.90
2023-05-06T10:38:17.157Z,21.90
2023-05-06T10:40:44.639Z,22.10
2023-05-06T10:43:34.221Z,22.00
2023-05-06T10:46:09.395Z,22.10
2023-05-06T10:48:38.101Z,22.20
2023-05-06T10:51:16.879Z,22.20
2023-05-06T10:54:07.858Z,22.30
2023-05-06T10:56:40.481Z,22.30
2023-05-06T10:59:11.667Z,22.30
2023-05-06T11:01:40.115Z,22.40
2023-05-06T11:04:08.192Z,22.40
2023-05-06T11:06:42.021Z,22.50
2023-05-06T11:09:16.829Z,22.50
2023-05-06T11:12:01.935Z,22.60
2023-05-06T11:14:35.751Z,22.70
2023-05-06T11:17:09.437Z,22.70
2023-05-06T11:19:38.205Z,22.80
2023-05-06T11:22:07.206Z,22.80
2023-05-06T11:24:42.562Z,22.90
2023-05-06T11:27:10.583Z,23.00
2023-05-06T11:29:37.987Z,23.10
2023-05-06T11:32:17.687Z,23.10
2023-05-06T11:34:45.112Z,23.20
2023-05-06T11:37:11.907Z,23.30
2023-05-06T11:39:40.828Z,23.30
2023-05-06T11:42:09.062Z,23.40
2023-05-06T11:44:37.790Z,23.50
2023-05-06T11:47:09.299Z,23.60
2023-05-06T11:49:41.624Z,23.60
2023-05-06T11:52:09.878Z,23.70
2023-05-06T11:54:39.883Z,23.80
2023-05-06T11:57:07.434Z,23.80
2023-05-06T11:59:39.777Z,23.90
2023-05-06T12:02:12.619Z,24.00
2023-05-06T12:04:45.058Z,24.10
2023-05-06T12:07:13.809Z,24.20
2023-05-06T12:09:48.804Z,24.30
2023-05-06T12:12:18.609Z,24.50
2023-05-06T12:14:46.218Z,24.60
2023-05-06T12:17:13.597Z,24.60
2023-05-06T12:19:40.592Z,24.70
2023-05-06T12:22:21.603Z,24.80
2023-05-06T12:24:49.566Z,24.90
2023-05-06T12:27:32.987Z,25.00
2023-05-06T12:30:00.555Z,25.20
2023-05-06T12:32:27.469Z,25.30
2023-05-06T12:34:54.621Z,25.40
2023-05-06T12:37:26.111Z,25.50
2023-05-06T12:39:52.979Z,25.50
2023-05-06T12:42:21.513Z,25.60
2023-05-06T12:44:48.341Z,25.70
2023-05-06T12:47:23.773Z,25.70
2023-05-06T12:49:58.909Z,25.80
2023-05-06T12:52:28.611Z,25.90
2023-05-06T12:54:56.446Z,26.00
2023-05-06T12:57:23.263Z,26.10
2023-05-06T12:59:50.148Z,26.10
2023-05-06T13:02:17.016Z,26.20
2023-05-06T13:04:45.264Z,26.30
2023-05-06T13:07:12.111Z,26.40
2023-05-06T13:09:38.863Z,26.60
2023-05-06T13:12:06.336Z,26.70
2023-05-06T13:14:33.111Z,26.90
2023-05-06T13:17:01.295Z,27.00
2023-05-06T13:19:32.983Z,27.10
2023-05-06T13:22:01.210Z,27.10
2023-05-06T13:24:28.665Z,27.10
2023-05-06T13:26:57.031Z,27.20
2023-05-06T13:29:24.468Z,27.30
2023-05-06T13:31:51.635Z,27.40
2023-05-06T13:34:18.958Z,27.60
2023-05-06T13:36:46.689Z,27.90
2023-05-06T13:39:13.545Z,28.30
2023-05-06T13:41:40.430Z,28.70
2023-05-06T13:44:07.209Z,29.20
2023-05-06T13:46:34.110Z,29.80
2023-05-06T13:49:01.023Z,30.30
2023-05-06T13:51:30.554Z,30.70
2023-05-06T13:53:57.425Z,31.10
2023-05-06T13:56:24.216Z,31.40
2023-05-06T13:58:50.954Z,31.80
2023-05-06T14:01:17.835Z,32.10
2023-05-06T14:03:44.634Z,32.30
2023-05-06T14:06:11.636Z,32.50
2023-05-06T14:08:38.537Z,32.70
2023-05-06T14:11:05.489Z,32.80
2023-05-06T14:13:33.676Z,32.90
2023-05-06T14:16:00.970Z,33.80
2023-05-06T14:18:28.822Z,33.10
2023-05-06T14:20:56.407Z,33.20
2023-05-06T14:23:23.173Z,33.30
2023-05-06T14:25:50.496Z,33.40
2023-05-06T14:28:17.518Z,33.40
2023-05-06T14:30:44.436Z,33.40
2023-05-06T14:33:11.707Z,33.40
2023-05-06T14:35:42.775Z,33.40
2023-05-06T14:38:10.838Z,33.30
2023-05-06T14:40:38.859Z,33.20
2023-05-06T14:43:07.593Z,33.00
2023-05-06T14:45:34.681Z,32.90
2023-05-06T14:48:01.804Z,32.70
2023-05-06T14:50:29.545Z,32.50
2023-05-06T14:52:56.307Z,32.30
2023-05-06T14:55:23.140Z,32.20
2023-05-06T14:57:49.924Z,32.20
2023-05-06T15:00:17.080Z,32.10
2023-05-06T15:02:44.029Z,32.10
2023-05-06T15:05:12.489Z,32.00
2023-05-06T15:07:39.515Z,31.90
2023-05-06T15:10:06.926Z,31.90
2023-05-06T15:12:34.393Z,31.80
2023-05-06T15:15:01.221Z,31.70
2023-05-06T15:17:28.370Z,31.60
2023-05-06T15:19:56.314Z,31.50
2023-05-06T15:22:23.184Z,30.10
2023-05-06T15:24:50.017Z,31.30
2023-05-06T15:27:16.820Z,31.20
2023-05-06T15:29:43.600Z,31.10
2023-05-06T15:32:10.753Z,31.00
2023-05-06T15:34:37.733Z,31.00
2023-05-06T15:37:04.560Z,30.90
2023-05-06T15:39:38.977Z,30.90
2023-05-06T15:42:06.233Z,30.70
2023-05-06T15:44:33.863Z,30.70
2023-05-06T15:47:00.920Z,30.70
2023-05-06T15:52:00.636Z,30.70
2023-05-06T15:54:28.526Z,30.70
2023-05-06T15:56:56.395Z,30.70
2023-05-06T15:59:23.634Z,30.70
2023-05-06T16:02:25.346Z,30.50
2023-05-06T16:04:37.676Z,30.50
2023-05-06T16:07:04.662Z,30.30
2023-05-06T16:09:31.464Z,30.20
2023-05-06T16:11:58.280Z,30.00
2023-05-06T16:14:25.083Z,29.90
2023-05-06T16:16:51.962Z,29.80
2023-05-06T16:19:18.797Z,29.70
2023-05-06T16:21:45.585Z,29.50
2023-05-06T16:24:12.390Z,29.40
2023-05-06T16:26:39.152Z,29.30
2023-05-06T16:29:06.670Z,29.20
2023-05-06T16:31:34.054Z,29.00
2023-05-06T16:34:01.034Z,28.90
2023-05-06T16:36:28.605Z,28.80
2023-05-06T16:38:55.543Z,28.70
2023-05-06T16:41:22.342Z,28.60
2023-05-06T16:43:49.834Z,28.50
2023-05-06T16:46:16.631Z,28.40
2023-05-06T16:48:43.591Z,28.30
2023-05-06T16:51:12.243Z,29.80
2023-05-06T16:53:39.219Z,28.10
2023-05-06T16:56:06.352Z,28.00
2023-05-06T16:58:33.264Z,27.90
2023-05-06T17:01:00.213Z,27.90
2023-05-06T17:03:27.076Z,27.80
2023-05-06T17:05:54.435Z,27.80
2023-05-06T17:08:22.986Z,27.70
2023-05-06T17:10:51.129Z,27.70
2023-05-06T17:13:18.110Z,27.60
2023-05-06T17:15:44.959Z,27.50
2023-05-06T17:18:12.533Z,27.50
2023-05-06T17:20:51.699Z,27.40
2023-05-06T17:23:22.372Z,27.30
2023-05-06T17:25:49.295Z,27.30
2023-05-06T17:28:18.650Z,27.30
2023-05-06T17:30:46.471Z,27.20
2023-05-06T17:33:13.578Z,27.10
2023-05-06T17:35:40.472Z,29.60
2023-05-06T17:38:09.833Z,27.00
2023-05-06T17:40:36.646Z,26.90
2023-05-06T17:43:03.623Z,26.90
2023-05-06T17:45:30.744Z,26.90
2023-05-06T17:47:57.732Z,24.60
2023-05-06T17:50:24.599Z,26.80
2023-05-06T17:52:52.923Z,26.80
2023-05-06T17:55:21.881Z,26.80
2023-05-06T17:57:49.276Z,29.40
2023-05-06T18:00:17.451Z,26.70
2023-05-06T18:02:45.232Z,26.60
2023-05-06T18:05:13.466Z,26.60
2023-05-06T18:07:41.195Z,26.50
2023-05-06T18:10:08.845Z,26.50
2023-05-06T18:12:35.882Z,26.40
2023-05-06T18:15:03.252Z,26.40
2023-05-06T18:17:30.653Z,26.30
2023-05-06T18:19:57.991Z,26.30
2023-05-06T18:22:24.904Z,26.10
2023-05-06T18:24:55.246Z,26.10
2023-05-06T18:27:22.801Z,26.00
2023-05-06T18:29:49.703Z,26.00
2023-05-06T18:32:17.276Z,25.90
2023-05-06T18:34:44.442Z,25.80
2023-05-06T18:37:11.391Z,25.80
2023-05-06T18:39:42.630Z,25.70
2023-05-06T18:42:09.784Z,25.60
2023-05-06T18:44:36.786Z,25.60
2023-05-06T18:47:03.717Z,25.50
2023-05-06T18:49:31.274Z,25.50
2023-05-06T18:51:58.523Z,25.40
2023-05-06T18:54:25.416Z,25.30
2023-05-06T18:56:52.287Z,25.30
2023-05-06T18:59:19.737Z,25.20
2023-05-06T19:01:46.823Z,25.20
2023-05-06T19:04:13.940Z,25.10
2023-05-06T19:06:41.094Z,25.00
2023-05-06T19:09:08.149Z,25.00
2023-05-06T19:11:35.509Z,24.90
2023-05-06T19:14:02.773Z,24.80
2023-05-06T19:16:29.870Z,24.80
2023-05-06T19:18:56.933Z,24.70
2023-05-06T19:21:24.556Z,24.60
2023-05-06T19:23:51.513Z,24.60
2023-05-06T19:26:18.369Z,24.50
2023-05-06T19:28:45.590Z,24.50
2023-05-06T19:31:12.597Z,24.40
2023-05-06T19:33:40.279Z,24.30
2023-05-06T19:36:07.383Z,24.30
2023-05-06T19:38:34.402Z,24.20
2023-05-06T19:41:02.176Z,24.20
2023-05-06T19:43:29.091Z,24.10
2023-05-06T19:45:56.139Z,24.10
2023-05-06T19:48:23.980Z,24.00
2023-05-06T19:50:53.796Z,23.90
2023-05-06T19:53:22.680Z,23.90
2023-05-06T19:55:49.749Z,23.90
2023-05-06T19:58:17.327Z,23.80
2023-05-06T20:00:45.125Z,23.80
2023-05-06T20:03:12.129Z,23.70
2023-05-06T20:05:39.027Z,23.60
2023-05-06T20:08:10.680Z,23.60
2023-05-06T20:10:38.138Z,23.60
2023-05-06T20:13:05.106Z,23.50
2023-05-06T20:15:31.918Z,23.50
2023-05-06T20:17:58.800Z,23.50
2023-05-06T20:20:34.014Z,23.40
2023-05-06T20:23:04.211Z,23.40
2023-05-06T20:25:31.513Z,23.30
2023-05-06T20:27:59.221Z,23.30
2023-05-06T20:30:26.641Z,23.20
2023-05-06T20:32:53.671Z,23.10
2023-05-06T20:35:20.699Z,23.10
2023-05-06T20:37:47.592Z,23.10
2023-05-06T20:40:15.282Z,23.00
2023-05-06T20:42:42.132Z,23.00
2023-05-06T20:45:09.734Z,22.90
2023-05-06T20:47:36.855Z,22.90
2023-05-06T20:50:04.047Z,22.90
2023-05-06T20:52:30.887Z,22.80
2023-05-06T20:54:58.277Z,22.70
2023-05-06T20:57:25.395Z,22.70
2023-05-06T20:59:52.670Z,22.80
2023-05-06T21:02:19.714Z,18.70
2023-05-06T21:04:46.812Z,22.60
2023-05-06T21:07:13.757Z,22.60
2023-05-06T21:09:40.637Z,22.50
2023-05-06T21:12:07.468Z,22.50
2023-05-06T21:14:34.364Z,22.50
2023-05-06T21:17:01.305Z,22.40
2023-05-06T21:19:28.178Z,22.40
2023-05-06T21:21:55.042Z,22.40
2023-05-06T21:24:21.829Z,22.30
2023-05-06T21:26:48.627Z,22.30
2023-05-06T21:29:15.493Z,22.20
2023-05-06T21:31:42.292Z,22.30
2023-05-06T21:34:10.624Z,22.20
2023-05-06T21:36:37.588Z,22.10
2023-05-06T21:39:10.536Z,22.10
2023-05-06T21:41:37.675Z,22.00
2023-05-06T21:44:05.795Z,22.00
2023-05-06T21:46:34.123Z,21.90
2023-05-06T21:49:01.282Z,21.90
2023-05-06T21:51:30.227Z,21.80
2023-05-06T21:53:57.003Z,21.80
2023-05-06T21:56:24.362Z,21.80
2023-05-06T21:58:52.217Z,21.70
2023-05-06T22:01:19.206Z,21.70
2023-05-06T22:03:46.352Z,21.70
2023-05-06T22:06:13.351Z,21.60
2023-05-06T22:08:42.412Z,21.60
2023-05-06T22:11:09.239Z,21.60
2023-05-06T22:13:36.223Z,21.60
2023-05-06T22:16:04.129Z,21.50
2023-05-06T22:18:32.077Z,21.50
2023-05-06T22:20:59.079Z,21.50
2023-05-06T22:23:27.767Z,21.50
2023-05-06T22:25:54.605Z,21.40
2023-05-06T22:28:21.730Z,21.40
2023-05-06T22:30:48.627Z,21.30
2023-05-06T22:33:15.420Z,21.30
2023-05-06T22:35:42.310Z,21.30
2023-05-06T22:38:09.074Z,21.30
2023-05-06T22:43:03.077Z,21.20
2023-05-06T22:45:29.890Z,21.30
2023-05-06T22:47:56.890Z,21.20
2023-05-06T22:50:24.975Z,21.20
2023-05-06T22:52:51.923Z,21.20
2023-05-06T22:55:18.830Z,21.20
2023-05-06T22:57:47.114Z,21.20
2023-05-06T23:00:14.029Z,21.10
2023-05-06T23:02:41.209Z,21.10
2023-05-06T23:05:09.045Z,21.10
2023-05-06T23:07:36.363Z,21.10
2023-05-06T23:10:03.192Z,21.10
2023-05-06T23:12:34.033Z,21.10
2023-05-06T23:15:01.317Z,21.10
2023-05-06T23:17:28.120Z,21.10
2023-05-06T23:19:54.963Z,21.00
2023-05-06T23:22:21.816Z,21.00
2023-05-06T23:24:48.570Z,20.90
2023-05-06T23:27:15.584Z,20.90
2023-05-06T23:29:42.333Z,21.00
2023-05-06T23:32:09.174Z,20.90
2023-05-06T23:34:35.930Z,20.90
2023-05-06T23:37:02.706Z,20.90
2023-05-06T23:39:29.494Z,20.90
2023-05-06T23:41:56.274Z,20.90
2023-05-06T23:44:23.267Z,20.90
2023-05-06T23:46:50.235Z,20.80
2023-05-06T23:49:17.014Z,20.80
2023-05-06T23:51:44.017Z,20.80
2023-05-06T23:54:10.783Z,20.80
2023-05-06T23:56:37.703Z,20.80
2023-05-06T23:59:04.530Z,20.80
